Time;durP1;ratioP1;P1;durP2;ratioP2;P2;SDS_P1;SDS_P2;PMS_P1;PMS_P2;Temp;Humidity;BMP_temperature;BMP_pressure;BME280_temperature;BME280_humidity;BME280_pressure;Samples;Min_cycle;Max_cycle;Signal;HPM_P1;HPM_P2
2021/10/10 00:01:24;;;;;;;9.60;4.47;;;;;;;4.70;99.65;102122.06;5243973;28;20103;-77
2021/10/10 00:03:55;;;;;;;8.60;4.35;;;;;;;4.57;100.00;102119.28;5241410;28;20024;-77
2021/10/10 00:06:25;;;;;;;7.43;4.38;;;;;;;4.59;100.00;102117.56;5242271;28;20120;-77
2021/10/10 00:08:56;;;;;;;7.25;4.05;;;;;;;4.43;100.00;102124.28;5241757;28;20082;-77
2021/10/10 00:11:26;;;;;;;9.20;4.82;;;;;;;4.17;100.00;102122.16;5242071;28;20059;-78
2021/10/10 00:13:56;;;;;;;7.68;4.38;;;;;;;4.23;100.00;102123.13;5241724;28;20078;-77
2021/10/10 00:16:26;;;;;;;7.80;4.72;;;;;;;4.18;100.00;102119.59;5241865;28;20029;-79
2021/10/10 00:18:57;;;;;;;7.85;4.53;;;;;;;4.19;100.00;102121.34;5241977;28;20036;-79
2021/10/10 00:21:27;;;;;;;9.73;4.35;;;;;;;4.16;100.00;102118.69;5241577;28;20021;-78
2021/10/10 00:23:58;;;;;;;7.30;4.00;;;;;;;4.06;100.00;102114.25;5241428;28;20111;-77
2021/10/10 00:26:28;;;;;;;9.43;4.15;;;;;;;4.12;100.00;102124.66;5242974;28;20024;-77
2021/10/10 00:28:58;;;;;;;8.18;3.95;;;;;;;4.30;100.00;102124.09;5243205;28;20140;-79
2021/10/10 00:31:29;;;;;;;9.35;4.07;;;;;;;4.57;100.00;102125.34;5243774;28;20464;-78
2021/10/10 00:33:59;;;;;;;8.10;4.00;;;;;;;4.51;99.96;102130.44;5241163;28;20032;-77
2021/10/10 00:36:30;;;;;;;6.57;4.10;;;;;;;4.29;100.00;102120.63;5241402;28;20030;-79
2021/10/10 00:39:01;;;;;;;7.00;3.72;;;;;;;4.19;100.00;102121.34;5241302;28;20021;-78
2021/10/10 00:41:31;;;;;;;7.22;3.63;;;;;;;3.92;100.00;102130.41;5241532;28;20487;-77
2021/10/10 00:44:07;;;;;;;7.75;3.53;;;;;;;3.71;100.00;102125.75;5241141;28;20929;-79
2021/10/10 00:46:38;;;;;;;7.45;3.78;;;;;;;3.90;100.00;102122.59;5241332;28;20031;-78
2021/10/10 00:49:09;;;;;;;7.82;4.05;;;;;;;3.77;100.00;102127.56;5235964;28;20302;-79
2021/10/10 00:51:43;;;;;;;8.23;3.60;;;;;;;3.92;100.00;102117.47;5241227;28;20020;-77
2021/10/10 00:54:15;;;;;;;7.60;4.20;;;;;;;4.02;100.00;102120.22;5238447;28;20446;-77
2021/10/10 00:56:46;;;;;;;6.65;3.40;;;;;;;3.79;100.00;102123.28;5238079;28;20056;-78
2021/10/10 00:59:22;;;;;;;7.82;4.30;;;;;;;3.99;100.00;102111.53;5226506;28;20036;-78
2021/10/10 01:01:52;;;;;;;8.95;3.83;;;;;;;3.99;100.00;102107.22;5245475;28;20021;-80
2021/10/10 01:04:23;;;;;;;7.75;4.20;;;;;;;3.97;100.00;102116.66;5244600;28;20040;-77
2021/10/10 01:06:53;;;;;;;10.77;4.63;;;;;;;4.12;100.00;102109.16;5244502;28;20392;-77
2021/10/10 01:09:24;;;;;;;9.10;4.50;;;;;;;4.12;100.00;102113.47;5244961;28;20040;-78
2021/10/10 01:11:56;;;;;;;8.07;4.63;;;;;;;4.20;100.00;102109.25;5244439;28;20299;-77
2021/10/10 01:14:27;;;;;;;7.72;4.22;;;;;;;4.35;100.00;102106.91;5244002;28;20036;-78
2021/10/10 01:16:57;;;;;;;6.45;3.72;;;;;;;3.86;99.35;102100.13;5226778;28;20024;-76
2021/10/10 01:19:29;;;;;;;8.48;4.55;;;;;;;3.91;100.00;102103.66;5245017;28;20246;-78
2021/10/10 01:22:03;;;;;;;6.78;3.67;;;;;;;3.97;99.42;102098.56;5225906;28;20024;-77
2021/10/10 01:24:33;;;;;;;8.63;4.32;;;;;;;3.71;100.00;102102.47;5244739;28;20036;-78
2021/10/10 01:27:04;;;;;;;8.60;3.85;;;;;;;3.70;100.00;102105.03;5245913;28;20542;-78
2021/10/10 01:29:34;;;;;;;7.30;3.90;;;;;;;3.51;100.00;102094.38;5248278;28;20025;-78
2021/10/10 01:32:05;;;;;;;6.85;3.70;;;;;;;3.35;100.00;102094.94;5244432;28;20039;-77
2021/10/10 01:34:35;;;;;;;9.07;4.25;;;;;;;3.42;100.00;102089.91;5244243;28;20342;-77
2021/10/10 01:37:05;;;;;;;7.18;4.25;;;;;;;3.71;100.00;102084.38;5244244;28;20536;-76
2021/10/10 01:39:36;;;;;;;9.25;4.15;;;;;;;3.65;100.00;102092.00;5243751;28;20044;-77
2021/10/10 01:42:07;;;;;;;9.18;4.43;;;;;;;3.77;100.00;102081.03;5243779;28;20029;-78
2021/10/10 01:44:37;;;;;;;7.78;3.97;;;;;;;3.91;100.00;102072.63;5233985;28;20569;-80
2021/10/10 01:47:07;;;;;;;10.13;4.65;;;;;;;3.88;100.00;102067.41;5243282;28;20020;-78
2021/10/10 01:49:38;;;;;;;9.35;4.40;;;;;;;3.93;99.27;102073.50;5243210;28;20070;-79
2021/10/10 01:52:08;;;;;;;9.07;4.55;;;;;;;3.71;99.42;102074.03;5243989;28;20028;-76
2021/10/10 01:54:39;;;;;;;8.85;4.38;;;;;;;3.61;99.43;102066.13;5244076;28;20277;-78
2021/10/10 01:57:09;;;;;;;8.25;4.05;;;;;;;3.50;100.00;102066.78;5246350;28;20074;-78
2021/10/10 01:59:39;;;;;;;7.40;4.40;;;;;;;3.52;100.00;102065.09;5247997;28;20027;-77
2021/10/10 02:02:09;;;;;;;8.63;4.60;;;;;;;3.67;100.00;102061.91;5243484;28;20473;-76
2021/10/10 02:04:40;;;;;;;10.50;5.28;;;;;;;3.67;100.00;102050.69;5243192;28;20416;-76
2021/10/10 02:07:10;;;;;;;12.27;5.05;;;;;;;3.64;99.79;102046.34;5242672;28;20095;-76
2021/10/10 02:09:42;;;;;;;7.90;4.78;;;;;;;3.56;100.00;102043.63;5243916;28;20054;-79
2021/10/10 02:12:12;;;;;;;11.45;4.70;;;;;;;3.49;100.00;102036.59;5239623;28;20032;-79
2021/10/10 02:14:42;;;;;;;9.77;5.03;;;;;;;3.51;100.00;102040.09;5242948;28;20029;-78
2021/10/10 02:17:13;;;;;;;7.57;4.68;;;;;;;3.53;99.90;102043.56;5243575;28;20024;-78
2021/10/10 02:19:43;;;;;;;10.23;4.80;;;;;;;3.58;100.00;102042.81;5243073;28;20024;-78
2021/10/10 02:22:13;;;;;;;9.38;4.93;;;;;;;3.54;100.00;102045.31;5224986;28;20025;-76
2021/10/10 02:24:44;;;;;;;10.18;5.10;;;;;;;3.50;100.00;102041.81;5242874;28;20436;-78
2021/10/10 02:27:14;;;;;;;9.05;5.22;;;;;;;3.54;100.00;102032.38;5245893;28;20354;-79
2021/10/10 02:29:44;;;;;;;10.80;5.53;;;;;;;3.53;100.00;102034.09;5246396;28;20119;-77
2021/10/10 02:32:15;;;;;;;10.85;5.47;;;;;;;3.60;100.00;102041.97;5242902;28;20078;-77
2021/10/10 02:34:45;;;;;;;9.23;5.05;;;;;;;3.61;100.00;102038.53;5242791;28;20024;-79
2021/10/10 02:37:16;;;;;;;10.18;5.38;;;;;;;3.73;100.00;102025.81;5242532;28;20384;-76
2021/10/10 02:39:46;;;;;;;10.63;5.45;;;;;;;3.69;100.00;102026.63;5242537;28;20039;-78
2021/10/10 02:42:16;;;;;;;9.15;5.10;;;;;;;3.75;100.00;102028.44;5242874;28;20235;-78
2021/10/10 02:44:46;;;;;;;10.18;4.93;;;;;;;3.85;100.00;102035.47;5240820;28;20028;-77
2021/10/10 02:47:17;;;;;;;8.80;5.18;;;;;;;3.81;100.00;102025.94;5245090;28;20557;-78
2021/10/10 02:49:48;;;;;;;8.63;4.55;;;;;;;3.03;100.00;102031.50;5242491;28;20175;-79
2021/10/10 02:52:19;;;;;;;9.40;4.82;;;;;;;2.94;100.00;102021.88;5242557;28;20028;-78
2021/10/10 02:54:50;;;;;;;8.55;4.38;;;;;;;3.00;100.00;102016.81;5241857;28;20060;-77
2021/10/10 02:57:20;;;;;;;7.43;4.90;;;;;;;3.15;100.00;102022.25;5247355;28;20154;-79
2021/10/10 02:59:50;;;;;;;9.30;4.97;;;;;;;2.95;100.00;102018.44;5244800;28;20052;-78
2021/10/10 03:02:20;;;;;;;9.00;4.55;;;;;;;3.28;100.00;102011.28;5242796;28;20100;-79
2021/10/10 03:04:51;;;;;;;8.45;4.13;;;;;;;3.32;97.88;102014.78;5241787;28;20032;-80
2021/10/10 03:07:22;;;;;;;8.65;3.88;;;;;;;3.40;96.66;102020.94;5242414;28;20031;-79
2021/10/10 03:09:52;;;;;;;7.88;4.20;;;;;;;3.23;94.48;102030.13;5242635;28;20028;-77
2021/10/10 03:12:23;;;;;;;8.15;4.40;;;;;;;2.98;97.04;102023.66;5242178;28;20032;-78
2021/10/10 03:14:53;;;;;;;7.90;4.10;;;;;;;2.66;100.00;102029.09;5241611;28;20032;-78
2021/10/10 03:17:23;;;;;;;9.82;4.72;;;;;;;2.54;100.00;102023.66;5241994;28;20607;-77
2021/10/10 03:19:53;;;;;;;9.38;4.32;;;;;;;2.67;100.00;102025.66;5242597;28;20658;-77
2021/10/10 03:22:24;;;;;;;7.88;4.20;;;;;;;3.00;100.00;102011.66;5241738;28;20052;-77
2021/10/10 03:24:54;;;;;;;8.52;4.22;;;;;;;3.04;97.94;102010.84;5241569;28;20028;-78
2021/10/10 03:27:27;;;;;;;8.02;4.40;;;;;;;3.14;96.89;102009.31;5244124;28;20036;-78
2021/10/10 03:29:57;;;;;;;6.68;4.18;;;;;;;2.54;100.00;102000.44;5244621;28;20037;-78
2021/10/10 03:32:28;;;;;;;7.57;4.30;;;;;;;2.22;100.00;102004.97;5241962;28;20035;-78
2021/10/10 03:34:58;;;;;;;7.05;4.40;;;;;;;2.21;100.00;101999.78;5241199;28;20312;-77
2021/10/10 03:37:28;;;;;;;7.75;4.80;;;;;;;2.06;100.00;102002.03;5242067;28;20031;-77
2021/10/10 03:39:58;;;;;;;7.85;4.78;;;;;;;1.97;100.00;102001.84;5242694;28;20036;-77
2021/10/10 03:42:29;;;;;;;7.78;4.25;;;;;;;2.17;100.00;102005.72;5242583;28;20032;-77
2021/10/10 03:44:59;;;;;;;10.07;4.40;;;;;;;2.44;100.00;101998.53;5242581;28;20028;-77
2021/10/10 03:47:29;;;;;;;9.25;4.60;;;;;;;2.84;100.00;101996.72;5242752;28;20028;-77
2021/10/10 03:50:00;;;;;;;9.23;4.70;;;;;;;2.57;100.00;102000.50;5242252;28;20028;-77
2021/10/10 03:52:30;;;;;;;10.07;4.43;;;;;;;2.80;100.00;101997.53;5242050;28;20037;-77
2021/10/10 03:57:49;;;;;;;9.45;4.55;;;;;;;2.41;100.00;101990.72;5242985;28;20119;-77
2021/10/10 04:00:20;;;;;;;9.05;4.95;;;;;;;2.44;100.00;101985.63;5245797;28;20536;-77
2021/10/10 04:02:50;;;;;;;8.52;5.05;;;;;;;2.66;100.00;101985.22;5224164;28;20037;-77
2021/10/10 04:08:04;;;;;;;8.68;4.57;;;;;;;2.26;100.00;101990.41;5243929;28;20055;-77
2021/10/10 04:10:34;;;;;;;8.02;4.57;;;;;;;1.92;100.00;101990.53;5244070;28;20040;-78
2021/10/10 04:13:06;;;;;;;11.18;4.88;;;;;;;1.80;100.00;101987.72;5245563;28;20028;-77
2021/10/10 04:15:37;;;;;;;10.13;5.30;;;;;;;1.96;100.00;101992.38;5245066;28;20077;-77
2021/10/10 04:18:09;;;;;;;9.05;5.05;;;;;;;2.03;100.00;101995.09;5246357;28;20024;-78
2021/10/10 04:20:39;;;;;;;9.70;4.70;;;;;;;2.32;100.00;101990.56;5244456;28;20029;-77
2021/10/10 04:23:09;;;;;;;9.88;4.72;;;;;;;2.51;100.00;101988.34;5242601;28;20031;-77
2021/10/10 04:25:40;;;;;;;8.10;4.55;;;;;;;2.60;98.77;101982.50;5242345;28;20468;-78
2021/10/10 04:28:10;;;;;;;9.38;4.55;;;;;;;2.58;96.96;101973.84;5244362;28;20083;-77
2021/10/10 04:30:40;;;;;;;9.35;4.68;;;;;;;2.59;96.69;101985.91;5250196;28;20349;-77
2021/10/10 04:33:10;;;;;;;9.57;4.45;;;;;;;2.43;97.87;101987.34;5247535;28;20063;-78
2021/10/10 04:35:41;;;;;;;10.95;4.57;;;;;;;2.53;98.04;101993.56;5247993;28;20028;-77
2021/10/10 04:38:11;;;;;;;7.95;4.60;;;;;;;2.79;96.85;101988.03;5247032;28;20539;-77
2021/10/10 04:40:42;;;;;;;9.23;4.53;;;;;;;2.48;97.51;101987.44;5246476;28;20024;-77
2021/10/10 04:43:13;;;;;;;12.57;5.20;;;;;;;2.16;98.80;101989.34;5243525;28;20032;-77
2021/10/10 04:45:43;;;;;;;8.90;4.53;;;;;;;2.18;100.00;101986.81;5247852;28;20031;-78
2021/10/10 04:48:13;;;;;;;9.55;5.10;;;;;;;2.12;100.00;101987.56;5249048;28;20028;-78
2021/10/10 04:50:43;;;;;;;10.20;5.20;;;;;;;2.26;100.00;101986.16;5248559;28;20434;-77
2021/10/10 04:53:14;;;;;;;9.98;4.88;;;;;;;2.15;100.00;101986.78;5248697;28;20024;-77
2021/10/10 04:55:44;;;;;;;7.88;4.82;;;;;;;1.95;100.00;101982.88;5249263;28;20051;-77
2021/10/10 04:58:14;;;;;;;9.13;4.95;;;;;;;1.93;100.00;101982.84;5250091;28;20047;-77
2021/10/10 05:00:45;;;;;;;11.20;5.60;;;;;;;2.04;100.00;101983.97;5233072;28;20548;-78
2021/10/10 05:03:15;;;;;;;11.70;5.53;;;;;;;2.10;100.00;101981.50;5248236;28;20020;-78
2021/10/10 05:05:45;;;;;;;9.15;5.50;;;;;;;2.09;100.00;101977.19;5230645;28;20051;-78
2021/10/10 05:08:15;;;;;;;10.35;5.50;;;;;;;2.15;100.00;101986.78;5248216;28;20028;-78
2021/10/10 05:10:46;;;;;;;10.65;5.78;;;;;;;2.25;100.00;101975.78;5229307;28;20039;-78
2021/10/10 05:13:16;;;;;;;11.10;5.65;;;;;;;2.25;100.00;101980.94;5249568;28;20056;-78
2021/10/10 05:15:46;;;;;;;9.70;5.70;;;;;;;2.10;100.00;101975.47;5248277;28;20556;-78
2021/10/10 05:18:16;;;;;;;11.45;5.47;;;;;;;2.34;100.00;101978.56;5248460;28;20531;-76
2021/10/10 05:20:47;;;;;;;10.93;5.40;;;;;;;2.25;100.00;101979.25;5249032;28;20032;-77
2021/10/10 05:23:17;;;;;;;8.25;5.03;;;;;;;2.19;99.62;101978.25;5248753;28;20020;-77
2021/10/10 05:25:47;;;;;;;8.45;4.63;;;;;;;2.23;98.87;101973.19;5248829;28;20502;-78
2021/10/10 05:28:18;;;;;;;9.57;4.45;;;;;;;2.25;97.42;101974.09;5250489;28;20024;-78
2021/10/10 05:30:48;;;;;;;9.73;4.82;;;;;;;1.92;99.24;101973.38;5250551;28;20098;-78
2021/10/10 05:33:19;;;;;;;12.82;5.22;;;;;;;1.79;100.00;101967.94;5248219;28;20036;-77
2021/10/10 05:35:49;;;;;;;10.55;5.30;;;;;;;1.84;100.00;101974.91;5247801;28;20082;-78
2021/10/10 05:38:20;;;;;;;10.57;5.18;;;;;;;1.94;100.00;101969.13;5248632;28;20029;-78
2021/10/10 05:40:50;;;;;;;7.93;4.55;;;;;;;1.95;100.00;101968.28;5247191;28;20032;-78
2021/10/10 05:43:20;;;;;;;10.18;4.65;;;;;;;1.88;100.00;101971.59;5248335;28;20021;-78
2021/10/10 05:45:50;;;;;;;8.73;4.95;;;;;;;1.76;100.00;101974.72;5247581;28;20089;-78
2021/10/10 05:48:21;;;;;;;9.23;5.20;;;;;;;1.88;100.00;101975.84;5248584;28;20105;-77
2021/10/10 05:50:51;;;;;;;10.02;5.43;;;;;;;1.84;100.00;101969.75;5248331;28;20040;-77
2021/10/10 05:53:21;;;;;;;10.23;5.25;;;;;;;2.00;100.00;101969.25;5248324;28;20108;-77
2021/10/10 05:55:59;;;;;;;10.98;5.20;;;;;;;1.82;100.00;101973.16;5248661;28;20338;-77
2021/10/10 05:58:33;;;;;;;8.77;4.97;;;;;;;2.07;100.00;101977.97;5249386;28;20283;-77
2021/10/10 06:01:03;;;;;;;10.25;5.07;;;;;;;2.14;100.00;101970.41;5250473;28;20052;-78
2021/10/10 06:03:36;;;;;;;11.40;5.53;;;;;;;2.17;100.00;101964.47;5247575;28;20043;-79
2021/10/10 06:06:06;;;;;;;9.82;5.53;;;;;;;2.13;100.00;101967.81;5247649;28;20024;-78
2021/10/10 06:08:36;;;;;;;9.65;5.15;;;;;;;1.99;100.00;101970.09;5247081;28;20051;-77
2021/10/10 06:11:07;;;;;;;9.82;5.47;;;;;;;2.21;100.00;101964.56;5245858;28;20020;-78
2021/10/10 06:13:38;;;;;;;11.40;5.90;;;;;;;2.23;100.00;101967.16;5231033;28;20524;-78
2021/10/10 06:16:10;;;;;;;13.65;5.85;;;;;;;2.30;100.00;101966.44;5252697;28;20040;-77
2021/10/10 06:18:41;;;;;;;10.63;6.07;;;;;;;2.37;100.00;101970.88;5247757;28;20508;-77
2021/10/10 06:21:11;;;;;;;10.63;6.03;;;;;;;2.38;100.00;101970.91;5245814;28;20042;-77
2021/10/10 06:23:42;;;;;;;13.43;5.78;;;;;;;2.49;100.00;101965.97;5247536;28;20040;-78
2021/10/10 06:26:12;;;;;;;14.30;6.57;;;;;;;2.59;100.00;101965.28;5243837;28;20492;-79
2021/10/10 06:28:42;;;;;;;10.85;6.03;;;;;;;2.93;100.00;101959.88;5250704;28;20039;-78
2021/10/10 06:31:12;;;;;;;12.70;7.07;;;;;;;3.13;100.00;101959.38;5249802;28;20434;-78
2021/10/10 06:33:43;;;;;;;12.80;6.82;;;;;;;3.25;100.00;101958.69;5300675;22;20068;-80
2021/10/10 06:36:19;;;;;;;13.15;7.38;;;;;;;3.38;100.00;101965.81;5254216;28;20020;-81
2021/10/10 06:38:50;;;;;;;17.30;7.70;;;;;;;3.47;100.00;101961.66;5234834;28;20028;-81
2021/10/10 06:41:21;;;;;;;15.23;7.47;;;;;;;3.57;100.00;101965.25;5233934;28;20029;-81
2021/10/10 06:43:51;;;;;;;15.82;7.78;;;;;;;3.48;100.00;101962.50;5246959;28;20039;-81
2021/10/10 06:46:21;;;;;;;13.30;7.07;;;;;;;3.65;100.00;101973.09;5254693;28;20115;-81
2021/10/10 06:48:52;;;;;;;11.73;6.80;;;;;;;3.73;100.00;101968.94;5253159;28;20031;-80
2021/10/10 06:51:22;;;;;;;14.07;7.47;;;;;;;3.91;100.00;101964.00;5253368;28;20028;-80
2021/10/10 06:53:52;;;;;;;13.30;7.78;;;;;;;3.89;100.00;101967.41;5253214;28;20039;-80
2021/10/10 06:56:22;;;;;;;13.75;7.35;;;;;;;3.99;100.00;101966.72;5253931;28;20110;-80
2021/10/10 06:58:53;;;;;;;14.18;7.43;;;;;;;4.16;100.00;101968.63;5255981;28;20058;-81
2021/10/10 07:01:23;;;;;;;14.18;7.45;;;;;;;4.12;100.00;101966.88;5274979;28;20134;-80
2021/10/10 07:03:56;;;;;;;14.73;7.90;;;;;;;4.20;100.00;101964.38;5251596;28;20077;-81
2021/10/10 07:06:27;;;;;;;12.57;7.38;;;;;;;4.28;100.00;101963.63;5268050;28;20031;-80
2021/10/10 07:08:57;;;;;;;13.00;8.57;;;;;;;4.29;100.00;101967.09;5271705;28;20668;-81
2021/10/10 07:11:27;;;;;;;15.63;7.93;;;;;;;4.36;100.00;101969.78;5253288;28;20024;-81
2021/10/10 07:13:58;;;;;;;14.77;8.30;;;;;;;4.52;100.00;101963.94;5269298;28;20059;-81
2021/10/10 07:16:33;;;;;;;15.48;8.85;;;;;;;4.63;100.00;101962.28;5269982;28;20063;-81
2021/10/10 07:19:04;;;;;;;14.52;8.65;;;;;;;4.68;100.00;101963.25;5274114;28;20016;-81
2021/10/10 07:27:12;;;;;;;15.20;8.00;;;;;;;6.81;100.00;101955.06;5267929;28;20058;-81
2021/10/10 07:29:42;;;;;;;13.40;7.35;;;;;;;8.37;92.38;101955.72;5258607;28;20029;-81
2021/10/10 07:32:13;;;;;;;10.88;6.25;;;;;;;10.85;80.12;101941.13;5270126;28;20031;-81
2021/10/10 07:34:43;;;;;;;10.70;6.57;;;;;;;11.16;75.35;101938.88;5257172;28;20124;-81
2021/10/10 07:37:13;;;;;;;12.07;6.57;;;;;;;11.42;76.09;101947.16;5255125;28;20039;-81
2021/10/10 07:39:44;;;;;;;12.13;6.63;;;;;;;12.18;73.03;101941.38;5250359;28;20030;-82
2021/10/10 07:42:15;;;;;;;11.30;6.85;;;;;;;11.24;76.77;101934.38;5269088;28;20650;-82
2021/10/10 07:44:46;;;;;;;10.57;6.93;;;;;;;11.42;75.49;101926.19;5251074;28;20073;-82
2021/10/10 07:49:53;;;;;;;14.07;7.13;;;;;;;12.41;72.91;101929.53;5273321;28;20093;-81
2021/10/10 07:52:24;;;;;;;9.90;6.70;;;;;;;13.05;70.04;101924.56;5249629;28;20024;-81
2021/10/10 07:54:54;;;;;;;11.27;6.53;;;;;;;13.21;69.90;101925.94;5251512;28;20115;-82
2021/10/10 07:57:25;;;;;;;10.93;6.50;;;;;;;13.60;66.31;101919.66;5269275;28;20119;-81
2021/10/10 07:59:55;;;;;;;10.82;6.65;;;;;;;14.16;66.44;101916.34;5256027;28;20059;-81
2021/10/10 08:02:30;;;;;;;11.35;6.78;;;;;;;13.50;69.42;101923.41;5261326;28;20499;-81
2021/10/10 08:05:53;;;;;;;9.52;6.03;;;;;;;14.63;66.35;101921.91;5242368;28;20032;-82
2021/10/10 08:08:23;;;;;;;9.60;6.07;;;;;;;14.42;65.74;101919.94;5246773;28;20056;-81
2021/10/10 08:10:53;;;;;;;9.90;6.90;;;;;;;14.75;65.77;101918.91;5264309;28;20062;-82
2021/10/10 08:13:24;;;;;;;8.40;6.30;;;;;;;13.51;68.15;101928.63;5245950;28;20028;-82
2021/10/10 08:15:54;;;;;;;11.43;6.53;;;;;;;15.14;65.33;101913.22;5246076;28;20808;-82
2021/10/10 08:18:24;;;;;;;9.30;6.13;;;;;;;15.04;64.51;101908.31;5264626;28;20274;-82
2021/10/10 08:20:55;;;;;;;9.85;6.80;;;;;;;15.52;62.95;101906.72;5248207;28;20032;-81
2021/10/10 08:23:25;;;;;;;10.90;6.82;;;;;;;15.30;65.17;101911.84;5264887;28;20031;-82
2021/10/10 08:25:55;;;;;;;11.30;7.15;;;;;;;15.66;62.24;101907.06;5265828;28;20721;-81
2021/10/10 08:28:26;;;;;;;10.75;6.65;;;;;;;16.02;63.42;101911.91;5247463;28;20024;-81
2021/10/10 08:30:56;;;;;;;12.88;6.90;;;;;;;15.14;64.40;101912.34;5248604;28;20035;-81
2021/10/10 08:33:28;;;;;;;10.57;6.90;;;;;;;15.12;63.54;101920.31;5233053;28;20032;-81
2021/10/10 08:35:59;;;;;;;9.82;6.70;;;;;;;15.36;63.54;101919.53;5233292;28;20519;-81
2021/10/10 08:38:29;;;;;;;9.48;6.60;;;;;;;14.28;67.51;101927.34;5210327;28;20029;-81
2021/10/10 08:41:01;;;;;;;10.25;6.75;;;;;;;15.31;63.94;101918.84;5231088;28;20038;-81
2021/10/10 08:43:33;;;;;;;9.55;6.55;;;;;;;15.25;64.50;101918.13;5236121;28;20029;-82
2021/10/10 08:46:05;;;;;;;8.95;6.40;;;;;;;15.62;63.79;101916.88;5237252;28;20062;-82
2021/10/10 08:48:37;;;;;;;9.43;5.97;;;;;;;14.78;64.45;101918.81;5252551;28;20033;-80
2021/10/10 08:51:07;;;;;;;9.57;6.28;;;;;;;14.27;65.70;101916.91;5255387;28;20078;-80
2021/10/10 08:53:37;;;;;;;9.18;6.80;;;;;;;14.04;67.96;101916.66;5254937;28;20107;-81
2021/10/10 08:56:08;;;;;;;10.80;7.13;;;;;;;13.08;70.22;101916.63;5229801;28;20028;-81
2021/10/10 08:58:42;;;;;;;11.82;7.10;;;;;;;12.06;75.59;101918.91;5226518;28;20020;-81
2021/10/10 09:01:27;;;;;;;10.52;6.35;;;;;;;12.13;74.23;101912.63;5228563;28;20039;-80
2021/10/10 09:03:57;;;;;;;12.00;7.20;;;;;;;12.11;74.21;101909.19;5230041;28;20040;-81
2021/10/10 09:06:31;;;;;;;9.95;6.78;;;;;;;12.07;75.17;101904.91;5228639;28;20125;-80
2021/10/10 09:09:27;;;;;;;14.15;6.60;;;;;;;11.62;75.34;101908.41;5250252;28;20789;-80
2021/10/10 09:11:58;;;;;;;12.32;6.72;;;;;;;11.73;76.22;101906.47;5232345;28;20032;-80
2021/10/10 09:14:29;;;;;;;9.45;6.18;;;;;;;11.57;77.02;101912.88;5251623;28;20036;-81
2021/10/10 09:17:14;;;;;;;10.80;6.47;;;;;;;11.75;76.07;101907.28;5257470;28;20028;-80
2021/10/10 09:19:58;;;;;;;12.88;6.13;;;;;;;11.84;76.97;101901.00;5233043;28;20020;-80
2021/10/10 09:22:29;;;;;;;11.82;6.15;;;;;;;11.96;74.63;101900.78;5237234;28;20040;-79
2021/10/10 09:25:09;;;;;;;12.88;6.07;;;;;;;11.88;76.82;101900.94;5237887;28;20035;-79
2021/10/10 09:27:40;;;;;;;9.27;5.93;;;;;;;11.92;75.93;101893.88;5248748;28;20043;-79
2021/10/10 09:30:11;;;;;;;9.48;5.80;;;;;;;12.03;73.64;101895.38;5254286;28;20058;-79
2021/10/10 09:32:44;;;;;;;10.32;6.07;;;;;;;11.92;74.65;101901.75;5238750;28;20050;-79
2021/10/10 09:35:30;;;;;;;9.15;5.82;;;;;;;12.25;73.50;101896.66;5271508;28;20496;-79
2021/10/10 09:38:21;;;;;;;10.95;6.35;;;;;;;12.15;74.48;101895.09;5258837;28;20049;-79
2021/10/10 09:41:08;;;;;;;13.65;6.45;;;;;;;12.52;74.28;101890.81;5273298;28;20057;-79
2021/10/10 09:44:07;;;;;;;10.93;6.20;;;;;;;12.38;74.35;101890.25;5275645;28;20035;-79
2021/10/10 09:46:41;;;;;;;10.00;5.95;;;;;;;12.39;73.74;101883.25;5278038;28;20024;-79
2021/10/10 09:49:24;;;;;;;8.73;5.28;;;;;;;12.31;73.47;101883.41;5256714;28;20038;-79
2021/10/10 09:52:07;;;;;;;8.57;5.57;;;;;;;12.20;74.40;101882.78;5274068;28;20024;-79
2021/10/10 09:54:46;;;;;;;12.43;5.80;;;;;;;12.43;74.93;101884.91;5275064;28;20053;-79
2021/10/10 09:57:18;;;;;;;9.23;5.50;;;;;;;12.62;73.87;101887.06;5268072;28;20102;-79
2021/10/10 09:59:49;;;;;;;9.60;5.60;;;;;;;12.65;72.98;101889.63;5254009;28;20039;-79
2021/10/10 10:02:41;;;;;;;12.77;6.20;;;;;;;12.39;71.29;101899.84;5259326;28;20031;-79
2021/10/10 10:05:26;;;;;;;9.20;4.80;;;;;;;12.58;71.98;101892.41;5260295;28;20031;-79
2021/10/10 10:07:57;;;;;;;10.23;5.95;;;;;;;12.86;73.64;101881.28;5255258;28;20039;-79
2021/10/10 10:10:30;;;;;;;9.77;5.28;;;;;;;12.82;72.03;101881.38;5277277;28;20028;-79
2021/10/10 10:13:02;;;;;;;11.85;5.70;;;;;;;12.91;71.94;101882.00;5278106;28;20028;-79
2021/10/10 10:15:35;;;;;;;8.50;5.15;;;;;;;13.02;72.19;101877.38;5258282;28;20418;-79
2021/10/10 10:18:06;;;;;;;8.75;5.30;;;;;;;13.24;70.55;101868.09;5260656;28;20026;-79
2021/10/10 10:20:36;;;;;;;8.57;5.10;;;;;;;13.26;69.47;101876.78;5275187;28;20025;-80
2021/10/10 10:23:08;;;;;;;8.05;5.05;;;;;;;13.18;69.15;101873.47;5259867;28;20027;-79
2021/10/10 10:25:38;;;;;;;9.75;5.05;;;;;;;13.28;71.93;101875.84;5273681;28;20024;-79
2021/10/10 10:28:10;;;;;;;8.82;5.18;;;;;;;13.10;69.05;101883.31;5249026;28;20039;-81
2021/10/10 10:30:40;;;;;;;8.98;4.85;;;;;;;13.09;70.29;101873.72;5249843;28;20115;-79
2021/10/10 10:33:11;;;;;;;11.55;5.00;;;;;;;13.16;70.46;101872.66;5258339;28;20164;-79
2021/10/10 10:35:46;;;;;;;9.65;5.03;;;;;;;13.51;70.44;101877.84;5273107;28;20031;-79
2021/10/10 10:38:16;;;;;;;6.80;4.30;;;;;;;13.67;68.70;101868.66;5253653;28;20371;-80
2021/10/10 10:40:47;;;;;;;8.60;4.60;;;;;;;13.33;65.85;101871.31;5273176;28;20023;-79
2021/10/10 10:43:35;;;;;;;6.90;4.13;;;;;;;13.58;68.23;101869.75;5254186;28;20131;-79
2021/10/10 10:46:07;;;;;;;8.30;4.22;;;;;;;13.67;66.91;101871.28;5237349;28;20252;-80
2021/10/10 10:48:37;;;;;;;8.23;4.40;;;;;;;13.74;68.09;101864.97;5234446;28;20086;-80
2021/10/10 10:51:30;;;;;;;9.13;4.40;;;;;;;13.49;67.26;101861.25;5240177;28;20032;-79
2021/10/10 10:54:38;;;;;;;7.22;4.60;;;;;;;13.67;67.74;101868.66;5256022;28;20032;-80
2021/10/10 10:57:37;;;;;;;7.28;4.30;;;;;;;13.73;66.35;101863.25;5235565;28;20031;-80
2021/10/10 11:00:21;;;;;;;9.57;4.47;;;;;;;13.77;65.95;101859.63;5260988;28;20265;-80
2021/10/10 11:03:06;;;;;;;8.77;4.63;;;;;;;13.75;65.60;101845.66;5233963;28;20032;-80
2021/10/10 11:05:50;;;;;;;6.53;3.70;;;;;;;13.86;65.03;101835.69;5255948;28;20047;-79
2021/10/10 11:08:26;;;;;;;8.18;3.85;;;;;;;13.98;65.16;101830.09;5252580;28;20024;-80
2021/10/10 11:10:59;;;;;;;7.32;4.20;;;;;;;14.15;64.90;101827.81;5255191;28;20035;-79
2021/10/10 11:13:50;;;;;;;7.57;4.38;;;;;;;14.21;65.51;101825.03;5237111;28;20032;-80
2021/10/10 11:16:26;;;;;;;7.65;3.97;;;;;;;14.28;64.23;101831.84;5235551;28;20086;-80
2021/10/10 11:19:08;;;;;;;6.28;3.80;;;;;;;14.04;65.32;101837.78;5236837;28;20028;-80
2021/10/10 11:21:42;;;;;;;5.47;3.65;;;;;;;13.99;58.98;101837.06;5238281;28;20020;-80
2021/10/10 11:24:21;;;;;;;5.80;3.50;;;;;;;14.01;63.47;101843.13;5233688;28;20039;-80
2021/10/10 11:26:52;;;;;;;7.50;3.85;;;;;;;13.85;64.70;101826.97;5244466;28;20051;-80
2021/10/10 11:29:23;;;;;;;6.53;3.80;;;;;;;13.97;63.52;101825.72;5237923;28;20020;-80
2021/10/10 11:31:55;;;;;;;7.28;3.97;;;;;;;14.03;62.57;101833.44;5238068;28;20046;-80
2021/10/10 11:34:25;;;;;;;9.00;3.72;;;;;;;14.16;62.78;101840.09;5259677;28;20024;-80
2021/10/10 11:36:56;;;;;;;5.88;3.53;;;;;;;14.13;62.73;101834.88;5246375;28;20118;-80
2021/10/10 11:39:29;;;;;;;6.88;3.50;;;;;;;14.19;58.35;101829.47;5265498;28;20419;-80
2021/10/10 11:42:03;;;;;;;6.78;3.90;;;;;;;13.97;60.22;101823.97;5264354;28;20055;-79
2021/10/10 11:44:36;;;;;;;7.03;3.60;;;;;;;14.14;62.10;101824.34;5245522;28;20036;-80
2021/10/10 11:47:17;;;;;;;5.65;3.50;;;;;;;13.85;64.08;101823.44;5265219;28;20036;-79
2021/10/10 11:49:57;;;;;;;8.18;4.70;;;;;;;13.89;64.32;101817.22;5261284;28;20036;-80
2021/10/10 11:52:34;;;;;;;7.97;4.05;;;;;;;14.00;63.36;101816.00;5246746;28;20526;-80
2021/10/10 11:55:09;;;;;;;6.70;3.92;;;;;;;14.00;63.20;101820.38;5264436;28;20621;-80
2021/10/10 11:57:40;;;;;;;7.88;3.92;;;;;;;14.11;62.48;101813.88;5249146;28;20024;-79
2021/10/10 12:00:21;;;;;;;7.97;3.80;;;;;;;14.04;62.36;101822.00;5251178;28;20045;-79
2021/10/10 12:02:52;;;;;;;8.75;4.30;;;;;;;13.92;65.05;101814.50;5269071;28;20032;-80